Time;durP1;ratioP1;P1;durP2;ratioP2;P2;SDS_P1;SDS_P2;PMS_P1;PMS_P2;Temp;Humidity;BMP_temperature;BMP_pressure;BME280_temperature;BME280_humidity;BME280_pressure;Samples;Min_cycle;Max_cycle;Signal;HPM_P1;HPM_P2
2024/01/29 00:00:51;;;;;;;7.18;5.25;;;;;;;7.11;53.49;101465.84;10393290;28;20180;-62
2024/01/29 00:05:53;;;;;;;6.13;4.90;;;;;;;7.03;54.02;101461.75;10395107;28;20056;-61
2024/01/29 00:10:57;;;;;;;6.78;4.88;;;;;;;7.03;54.18;101467.06;10394623;28;20060;-62
2024/01/29 00:15:59;;;;;;;7.03;5.05;;;;;;;6.97;53.83;101462.03;10370807;28;20040;-63
2024/01/29 00:21:01;;;;;;;7.72;5.28;;;;;;;6.99;54.30;101469.91;10392050;28;20052;-64
2024/01/29 00:26:03;;;;;;;6.95;5.03;;;;;;;6.90;53.80;101465.88;10393467;28;20092;-62
2024/01/29 00:31:04;;;;;;;7.45;5.32;;;;;;;6.86;54.10;101453.72;10392051;28;20057;-62
2024/01/29 00:36:07;;;;;;;6.45;5.30;;;;;;;6.87;54.10;101452.81;10406600;28;20041;-63
2024/01/29 00:41:08;;;;;;;6.13;4.78;;;;;;;6.78;54.22;101437.34;10387256;28;20720;-63
2024/01/29 00:46:09;;;;;;;5.00;4.38;;;;;;;6.76;54.14;101453.28;10389236;28;20049;-63
2024/01/29 00:51:11;;;;;;;5.85;4.68;;;;;;;6.76;54.81;101444.50;10394983;28;20045;-62
2024/01/29 00:56:12;;;;;;;5.25;4.57;;;;;;;6.72;54.47;101442.00;10391218;28;20076;-64
2024/01/29 01:01:14;;;;;;;5.75;4.95;;;;;;;6.71;54.62;101456.16;10399794;28;20044;-63
2024/01/29 01:06:15;;;;;;;6.80;5.28;;;;;;;6.68;54.52;101451.00;10404814;28;20094;-63
2024/01/29 01:11:17;;;;;;;7.35;6.40;;;;;;;6.63;54.76;101458.28;10413400;28;20045;-61
2024/01/29 01:16:18;;;;;;;7.18;5.40;;;;;;;6.63;54.93;101452.13;10398058;28;20140;-63
2024/01/29 01:21:20;;;;;;;6.65;5.47;;;;;;;6.54;55.06;101454.28;10395274;28;20059;-64
2024/01/29 01:26:21;;;;;;;5.35;4.85;;;;;;;6.50;55.05;101462.38;10396364;28;20063;-62
2024/01/29 01:31:23;;;;;;;7.47;4.65;;;;;;;6.55;55.41;101465.69;10392974;28;20052;-61
2024/01/29 01:36:24;;;;;;;6.70;5.10;;;;;;;6.51;55.79;101469.41;10395049;28;20063;-64
2024/01/29 01:41:26;;;;;;;5.60;5.00;;;;;;;6.52;55.78;101492.28;10393076;28;20053;-62
2024/01/29 01:46:28;;;;;;;7.07;5.20;;;;;;;6.53;56.02;101472.81;10394229;28;20056;-62
2024/01/29 01:51:30;;;;;;;9.18;5.38;;;;;;;6.36;56.00;101455.94;10398523;28;20134;-63
2024/01/29 01:56:32;;;;;;;6.25;5.30;;;;;;;6.39;56.08;101467.31;10398654;28;20059;-62
2024/01/29 02:01:34;;;;;;;7.57;5.95;;;;;;;6.32;55.59;101461.41;10401769;28;20104;-64
2024/01/29 02:06:35;;;;;;;5.65;5.15;;;;;;;6.29;55.56;101464.19;10396898;28;20847;-62
2024/01/29 02:11:37;;;;;;;7.07;5.82;;;;;;;6.30;56.33;101472.03;10398670;28;20060;-63
2024/01/29 02:16:39;;;;;;;6.75;5.95;;;;;;;6.28;56.21;101475.72;10398654;28;20142;-62
2024/01/29 02:21:40;;;;;;;6.25;5.65;;;;;;;6.24;56.20;101469.66;10400591;28;20066;-62
2024/01/29 02:26:46;;;;;;;7.13;6.40;;;;;;;6.12;56.30;101463.13;10401320;28;20910;-63
2024/01/29 02:31:47;;;;;;;7.20;6.05;;;;;;;6.16;56.68;101474.44;10360043;28;20100;-63
2024/01/29 02:36:49;;;;;;;6.70;6.00;;;;;;;6.08;56.57;101455.38;10357638;28;20051;-63
2024/01/29 02:41:50;;;;;;;6.45;5.70;;;;;;;6.07;56.87;101453.69;10355621;28;20715;-63
2024/01/29 02:46:52;;;;;;;5.57;4.93;;;;;;;6.01;57.00;101447.72;10361891;28;20692;-63
2024/01/29 02:51:53;;;;;;;5.25;4.75;;;;;;;6.10;56.86;101458.84;10358463;28;20057;-63
2024/01/29 02:56:55;;;;;;;5.68;5.05;;;;;;;6.03;56.93;101458.22;10349058;28;20692;-63
2024/01/29 03:01:57;;;;;;;6.93;6.13;;;;;;;6.01;57.54;101460.94;10357574;28;20656;-63
2024/01/29 03:06:58;;;;;;;7.18;6.28;;;;;;;6.01;57.36;101474.16;10361292;28;20056;-62
2024/01/29 03:12:01;;;;;;;6.55;5.95;;;;;;;5.95;58.04;101450.59;10384232;28;20698;-64
2024/01/29 03:17:02;;;;;;;7.30;5.75;;;;;;;5.96;57.65;101456.72;10353099;28;20068;-62
2024/01/29 03:22:04;;;;;;;5.90;5.30;;;;;;;5.95;57.62;101461.16;10361470;28;20045;-64
2024/01/29 03:27:05;;;;;;;6.22;5.50;;;;;;;5.97;57.78;101469.91;10364087;28;20072;-61
2024/01/29 03:32:07;;;;;;;6.90;4.95;;;;;;;5.94;58.12;101459.44;10355234;28;20052;-64
2024/01/29 03:37:08;;;;;;;5.38;4.88;;;;;;;5.90;58.21;101462.28;10356479;28;20049;-62
2024/01/29 03:42:10;;;;;;;6.32;5.72;;;;;;;5.77;57.72;101440.81;10354132;28;20074;-63
2024/01/29 03:47:11;;;;;;;7.35;6.13;;;;;;;5.83;57.99;101443.19;10356905;28;20120;-64
2024/01/29 03:52:13;;;;;;;6.88;5.43;;;;;;;5.80;58.16;101448.59;10352395;28;20041;-63
2024/01/29 03:57:14;;;;;;;6.78;5.50;;;;;;;5.85;58.39;101449.25;10396105;28;20051;-63
2024/01/29 04:02:16;;;;;;;7.45;5.88;;;;;;;5.77;58.06;101451.38;10398446;28;20152;-64
2024/01/29 04:07:19;;;;;;;6.63;5.35;;;;;;;5.79;58.94;101439.78;10393248;28;20140;-62
2024/01/29 04:12:20;;;;;;;6.15;4.75;;;;;;;5.73;58.85;101442.69;10395528;28;20637;-62
2024/01/29 04:17:22;;;;;;;6.68;5.30;;;;;;;5.68;58.65;101435.91;10395311;28;20057;-63
2024/01/29 04:22:23;;;;;;;9.68;5.88;;;;;;;5.57;58.98;101428.38;10345807;28;20061;-63
2024/01/29 04:27:25;;;;;;;7.25;6.55;;;;;;;5.65;58.92;101432.44;10358938;28;20041;-63
2024/01/29 04:32:29;;;;;;;6.80;6.10;;;;;;;5.55;59.02;101425.81;10361171;28;20144;-62
2024/01/29 04:37:31;;;;;;;6.40;5.47;;;;;;;5.44;59.69;101412.19;10399655;28;20481;-63
2024/01/29 04:42:33;;;;;;;6.60;5.88;;;;;;;5.50;59.36;101433.06;10403416;28;20234;-62
2024/01/29 04:47:34;;;;;;;7.03;5.93;;;;;;;5.44;59.75;101420.13;10403676;28;20115;-63
2024/01/29 04:52:36;;;;;;;7.28;5.82;;;;;;;5.44;59.14;101430.69;10402512;28;20606;-64
2024/01/29 04:57:38;;;;;;;5.40;4.90;;;;;;;5.58;60.19;101443.31;10385267;28;20144;-63
2024/01/29 05:02:39;;;;;;;6.72;5.57;;;;;;;5.60;60.51;101439.72;10404770;28;20053;-63
2024/01/29 05:07:41;;;;;;;7.32;5.63;;;;;;;5.49;59.70;101434.00;10405927;28;20802;-64
2024/01/29 05:12:42;;;;;;;7.50;6.05;;;;;;;5.44;60.03;101433.31;10357838;28;20682;-63
2024/01/29 05:17:44;;;;;;;6.55;5.93;;;;;;;5.38;60.22;101430.94;10354923;28;20102;-64
2024/01/29 05:22:45;;;;;;;6.00;4.97;;;;;;;5.40;60.14;101437.00;10358593;28;20062;-63
2024/01/29 05:27:47;;;;;;;5.68;5.07;;;;;;;5.42;60.30;101429.88;10364757;28;20057;-63
2024/01/29 05:32:48;;;;;;;5.93;5.00;;;;;;;5.37;59.90;101423.94;10359403;28;20054;-64
2024/01/29 05:37:50;;;;;;;6.07;5.00;;;;;;;5.43;60.32;101435.09;10362679;28;20544;-64
2024/01/29 05:42:54;;;;;;;7.60;6.88;;;;;;;5.37;60.45;101434.50;10364786;28;20131;-65
2024/01/29 05:47:57;;;;;;;6.50;5.95;;;;;;;5.38;60.10;101430.94;10362573;28;20053;-65
2024/01/29 05:52:59;;;;;;;8.13;6.25;;;;;;;5.40;60.19;101429.09;10359188;28;20136;-65
2024/01/29 05:58:00;;;;;;;5.47;4.43;;;;;;;5.36;60.69;101444.19;10374034;28;20573;-65
2024/01/29 06:03:02;;;;;;;5.32;4.75;;;;;;;5.44;60.40;101449.16;10361603;28;20056;-64
2024/01/29 06:08:04;;;;;;;5.43;4.93;;;;;;;5.34;60.44;101451.31;10359361;28;20696;-66
2024/01/29 06:13:05;;;;;;;5.93;4.45;;;;;;;5.38;61.41;101449.41;10354974;28;20054;-63
2024/01/29 06:18:07;;;;;;;5.53;5.03;;;;;;;5.33;60.17;101449.59;10349313;28;20050;-63
2024/01/29 06:23:09;;;;;;;6.45;5.55;;;;;;;5.30;61.15;101457.66;10376313;28;20063;-65
2024/01/29 06:28:12;;;;;;;6.95;5.35;;;;;;;5.29;61.33;101445.34;10390708;28;20516;-64
2024/01/29 06:33:14;;;;;;;6.40;5.65;;;;;;;5.29;61.42;101464.69;10396107;28;20515;-65
2024/01/29 06:38:16;;;;;;;6.25;5.57;;;;;;;5.26;61.40;101472.72;10369525;28;20506;-65
2024/01/29 06:43:17;;;;;;;8.25;5.95;;;;;;;5.24;61.00;101474.56;10389485;28;20071;-64
2024/01/29 06:48:19;;;;;;;6.38;5.32;;;;;;;5.26;61.93;101480.66;10384404;28;20061;-65
2024/01/29 06:53:21;;;;;;;9.57;6.45;;;;;;;5.29;62.22;101496.38;10360462;28;20156;-64
2024/01/29 06:58:22;;;;;;;8.68;6.25;;;;;;;5.13;62.28;101479.41;10365900;28;20049;-64
2024/01/29 07:03:23;;;;;;;8.77;7.03;;;;;;;5.12;61.82;101494.38;10354496;28;20056;-63
2024/01/29 07:08:25;;;;;;;8.85;6.60;;;;;;;5.08;61.96;101503.31;10355432;28;20128;-64
2024/01/29 07:13:27;;;;;;;7.57;6.25;;;;;;;5.07;62.55;101511.31;10345571;28;20779;-64
2024/01/29 07:18:29;;;;;;;12.52;7.10;;;;;;;5.05;62.70;101518.44;10373853;28;20580;-63
2024/01/29 07:23:30;;;;;;;9.55;7.07;;;;;;;5.08;63.39;101526.22;10352180;28;20052;-64
2024/01/29 07:28:32;;;;;;;11.65;6.85;;;;;;;5.17;62.77;101528.53;10345941;28;20052;-64
2024/01/29 07:33:36;;;;;;;11.60;7.45;;;;;;;5.06;62.77;101530.69;10356101;28;20204;-67
2024/01/29 07:38:37;;;;;;;15.05;7.38;;;;;;;4.83;62.93;101521.84;10356587;28;20050;-63
2024/01/29 07:43:39;;;;;;;11.02;7.78;;;;;;;4.86;63.28;101547.25;10365704;28;20049;-63
2024/01/29 07:48:41;;;;;;;12.65;7.13;;;;;;;4.83;63.34;101531.53;10361996;28;20080;-64
2024/01/29 07:53:43;;;;;;;14.35;8.88;;;;;;;4.82;63.75;101540.38;10359714;28;20446;-65
2024/01/29 07:58:44;;;;;;;11.90;8.02;;;;;;;4.94;63.72;101550.50;10339075;28;20648;-65
2024/01/29 08:03:46;;;;;;;14.77;8.38;;;;;;;4.84;64.14;101538.56;10331099;28;20742;-64
2024/01/29 08:08:48;;;;;;;11.85;7.95;;;;;;;5.12;63.79;101557.72;10343310;28;20050;-63
2024/01/29 08:13:50;;;;;;;10.15;7.53;;;;;;;5.15;63.15;101564.69;10361994;28;20553;-66
2024/01/29 08:18:52;;;;;;;15.00;8.48;;;;;;;5.21;63.21;101558.28;10356701;28;20053;-65
2024/01/29 08:23:53;;;;;;;9.73;8.05;;;;;;;5.32;63.25;101556.97;10359813;28;20089;-65
2024/01/29 08:28:54;;;;;;;10.50;8.07;;;;;;;5.52;62.45;101567.72;10361867;28;20108;-62
2024/01/29 08:33:56;;;;;;;10.07;7.40;;;;;;;5.51;62.22;101542.22;10380363;28;20056;-64
2024/01/29 08:38:58;;;;;;;9.25;8.35;;;;;;;5.56;62.76;101556.13;10404640;28;20144;-65
2024/01/29 08:44:00;;;;;;;9.55;7.72;;;;;;;5.62;62.95;101548.81;10403704;28;20200;-64
2024/01/29 08:49:03;;;;;;;11.10;8.13;;;;;;;5.71;63.04;101549.38;10394376;28;20052;-65
2024/01/29 08:54:04;;;;;;;10.60;8.43;;;;;;;5.72;62.75;101545.78;10409296;28;20063;-63
2024/01/29 08:59:07;;;;;;;9.88;8.85;;;;;;;5.89;62.96;101561.00;10374455;28;20057;-63
2024/01/29 09:04:09;;;;;;;9.73;8.82;;;;;;;6.04;63.12;101555.13;10364567;28;20113;-62
2024/01/29 09:09:10;;;;;;;11.55;9.05;;;;;;;6.11;63.00;101539.84;10362471;28;20191;-66
2024/01/29 09:14:12;;;;;;;12.13;9.45;;;;;;;6.34;62.41;101547.69;10365894;28;20045;-63
2024/01/29 09:19:14;;;;;;;11.52;10.27;;;;;;;6.61;62.32;101563.31;10367708;28;20115;-63
2024/01/29 09:24:17;;;;;;;11.52;9.48;;;;;;;6.81;62.07;101565.09;10359449;28;20116;-63
2024/01/29 09:29:19;;;;;;;11.02;9.88;;;;;;;7.08;60.86;101562.16;10375094;28;20041;-63
2024/01/29 09:34:22;;;;;;;77.53;20.23;;;;;;;7.30;60.44;101559.41;10387474;28;20057;-62
2024/01/29 09:39:25;;;;;;;136.63;34.67;;;;;;;7.42;60.64;101564.13;10361013;28;20140;-63
2024/01/29 09:44:28;;;;;;;18.45;12.57;;;;;;;7.50;59.91;101576.16;10368792;28;20108;-63
2024/01/29 09:49:30;;;;;;;13.45;11.98;;;;;;;7.58;59.15;101558.09;10361578;28;20132;-63
2024/01/29 09:54:33;;;;;;;20.88;13.60;;;;;;;7.87;58.92;101566.47;10357441;28;20106;-62
2024/01/29 09:59:36;;;;;;;13.45;10.43;;;;;;;8.11;58.34;101575.88;10359944;28;20188;-63
2024/01/29 10:04:39;;;;;;;;;;;;;;;8.12;58.14;101582.03;10347513;28;20236;-63
2024/01/29 10:09:41;;;;;;;14.73;9.88;;;;;;;8.06;58.46;101564.66;10370507;28;19929;-62
2024/01/29 10:14:42;;;;;;;21.65;12.00;;;;;;;8.34;57.49;101583.63;10362268;28;20165;-63
2024/01/29 10:19:45;;;;;;;26.45;24.00;;;;;;;8.59;57.24;101570.88;10360988;28;20061;-62
2024/01/29 10:24:59;;;;;;;12.63;10.45;;;;;;;9.08;56.05;101578.06;10361712;28;20069;-62
2024/01/29 10:30:01;;;;;;;12.93;10.88;;;;;;;9.29;55.11;101559.25;10366123;28;20056;-62
2024/01/29 10:35:03;;;;;;;25.85;12.00;;;;;;;9.57;54.08;101565.75;10396246;28;20593;-64
2024/01/29 10:40:08;;;;;;;17.20;10.25;;;;;;;9.76;54.08;101558.44;10394892;28;20624;-62
2024/01/29 10:45:14;;;;;;;15.05;11.05;;;;;;;9.88;53.57;101549.78;10364674;28;20076;-63
2024/01/29 10:50:18;;;;;;;10.65;9.65;;;;;;;10.24;52.63;101559.25;10414514;28;20130;-62
2024/01/29 10:55:20;;;;;;;11.85;9.82;;;;;;;10.93;51.68;101553.44;10375294;28;20139;-63
2024/01/29 11:00:21;;;;;;;22.00;10.15;;;;;;;11.42;49.48;101554.84;10356661;28;20074;-63
2024/01/29 11:05:24;;;;;;;26.92;10.95;;;;;;;11.81;48.88;101546.09;10358001;28;20065;-63
2024/01/29 11:10:30;;;;;;;38.45;14.18;;;;;;;12.20;47.46;101554.25;10353569;28;20053;-63
2024/01/29 11:15:32;;;;;;;34.58;11.85;;;;;;;12.71;46.66;101542.81;10350335;28;20110;-63
2024/01/29 11:20:33;;;;;;;43.38;12.57;;;;;;;13.31;45.14;101543.97;10355879;28;20056;-63
2024/01/29 11:25:36;;;;;;;8.98;8.07;;;;;;;13.88;44.71;101512.25;10371503;28;20060;-63
2024/01/29 11:30:47;;;;;;;;;;;;;;;14.32;43.07;101524.09;10353403;28;20454;-64
2024/01/29 11:35:55;;;;;;;18.77;11.05;;;;;;;14.07;42.96;101517.94;10355455;28;20048;-63
2024/01/29 11:41:00;;;;;;;65.07;16.83;;;;;;;14.07;43.71;101511.72;10396616;28;20049;-64
2024/01/29 11:46:05;;;;;;;16.92;9.60;;;;;;;14.99;42.77;101491.22;10382260;28;20129;-63
2024/01/29 11:51:06;;;;;;;10.23;9.23;;;;;;;15.55;40.71;101508.22;10349634;28;20657;-63
2024/01/29 11:56:08;;;;;;;59.10;16.00;;;;;;;15.72;40.49;101501.50;10349214;28;20192;-62
2024/01/29 12:01:11;;;;;;;20.42;9.95;;;;;;;15.20;41.72;101488.63;10371634;28;20079;-66
2024/01/29 12:06:14;;;;;;;9.80;8.40;;;;;;;15.27;41.36;101493.53;10387910;28;20108;-65
2024/01/29 12:11:16;;;;;;;10.13;8.43;;;;;;;15.59;40.05;101465.91;10351576;28;20060;-66
2024/01/29 12:16:18;;;;;;;10.65;8.25;;;;;;;16.39;39.85;101486.06;10358410;28;20172;-65
2024/01/29 12:21:20;;;;;;;11.73;8.95;;;;;;;16.77;38.73;101468.47;10396120;28;20061;-65
2024/01/29 12:26:29;;;;;;;9.00;8.13;;;;;;;17.35;37.94;101472.38;10381520;28;20085;-64
2024/01/29 12:31:31;;;;;;;12.23;9.02;;;;;;;17.65;37.58;101460.66;10354294;28;20081;-64
2024/01/29 12:36:32;;;;;;;49.00;15.75;;;;;;;17.87;37.45;101451.44;10352562;28;20542;-64
2024/01/29 12:41:34;;;;;;;12.52;9.05;;;;;;;18.40;36.33;101457.38;10347064;28;20612;-64
2024/01/29 12:46:36;;;;;;;8.57;7.75;;;;;;;18.94;35.02;101449.56;10356163;28;20585;-66
2024/01/29 12:51:37;;;;;;;9.15;8.23;;;;;;;19.48;33.78;101445.09;10382652;28;20072;-64
2024/01/29 12:56:39;;;;;;;17.80;9.27;;;;;;;19.88;33.48;101449.25;10362838;28;20065;-65
2024/01/29 13:01:40;;;;;;;11.85;8.57;;;;;;;20.34;33.12;101449.06;10369122;28;20061;-64
2024/01/29 13:06:45;;;;;;;18.88;10.02;;;;;;;20.46;32.67;101436.13;10354529;28;20056;-64
2024/01/29 13:11:49;;;;;;;10.00;9.07;;;;;;;21.76;30.67;101433.25;10358091;28;20053;-65
2024/01/29 13:16:50;;;;;;;9.60;7.88;;;;;;;22.12;29.92;101435.63;10358638;28;20049;-65
2024/01/29 13:21:53;;;;;;;7.80;6.90;;;;;;;21.85;30.57;101438.50;10347346;28;20069;-66
2024/01/29 13:26:56;;;;;;;8.80;8.00;;;;;;;22.16;30.70;101424.25;10372410;28;20140;-66
2024/01/29 13:31:58;;;;;;;8.63;7.82;;;;;;;22.32;30.03;101417.97;10389312;28;20160;-63
2024/01/29 13:37:00;;;;;;;;;;;;;;;21.46;31.64;101417.44;10397395;28;20560;-65
2024/01/29 13:42:02;;;;;;;8.63;7.82;;;;;;;22.26;29.91;101418.63;10394961;28;19921;-64
2024/01/29 13:47:04;;;;;;;9.25;8.38;;;;;;;23.44;28.38;101411.59;10394041;28;20061;-64
2024/01/29 13:52:06;;;;;;;9.82;7.93;;;;;;;21.64;30.27;101402.94;10386562;28;20064;-65
2024/01/29 13:57:07;;;;;;;9.23;7.95;;;;;;;19.53;33.91;101418.50;10363800;28;20171;-64
2024/01/29 14:02:09;;;;;;;8.93;7.53;;;;;;;19.22;34.42;101415.31;10373705;28;20060;-65
2024/01/29 14:07:12;;;;;;;8.95;8.05;;;;;;;19.93;33.21;101425.28;10379630;28;20045;-65
2024/01/29 14:12:13;;;;;;;8.13;7.43;;;;;;;19.03;34.71;101410.88;10377086;28;20055;-64
2024/01/29 14:17:15;;;;;;;10.48;9.48;;;;;;;20.06;34.13;101414.09;10384873;28;20207;-64
2024/01/29 14:22:18;;;;;;;10.45;9.38;;;;;;;21.50;31.00;101410.72;10367780;28;20049;-65
2024/01/29 14:27:20;;;;;;;10.90;9.75;;;;;;;22.34;30.52;101409.66;10389226;28;20044;-65
2024/01/29 14:32:22;;;;;;;13.32;11.93;;;;;;;19.49;33.66;101421.69;10384150;28;20162;-66
2024/01/29 14:37:24;;;;;;;10.05;9.15;;;;;;;18.13;36.29;101415.88;10389698;28;20184;-65
2024/01/29 14:42:25;;;;;;;12.40;10.68;;;;;;;16.90;38.28;101403.72;10379437;28;20064;-65
2024/01/29 14:47:27;;;;;;;12.88;10.77;;;;;;;16.23;39.68;101417.53;10370337;28;20114;-64
2024/01/29 14:52:29;;;;;;;12.48;11.00;;;;;;;15.92;41.68;101418.47;10376371;28;20072;-64
2024/01/29 14:57:30;;;;;;;13.43;12.00;;;;;;;15.65;42.16;101428.66;10369130;28;20159;-64
2024/01/29 15:02:31;;;;;;;14.10;12.52;;;;;;;15.45;43.03;101427.63;10392986;28;20083;-65
2024/01/29 15:07:33;;;;;;;13.63;12.20;;;;;;;15.68;42.50;101424.88;10391375;28;20090;-63
2024/01/29 15:12:42;;;;;;;14.07;12.73;;;;;;;15.68;42.10;101424.88;10365113;28;20206;-65
2024/01/29 15:17:44;;;;;;;12.52;11.30;;;;;;;16.21;41.04;101440.13;10377754;28;20074;-63
2024/01/29 15:22:46;;;;;;;13.50;11.60;;;;;;;15.42;42.38;101433.25;10381957;28;20063;-64
2024/01/29 15:27:47;;;;;;;12.38;10.88;;;;;;;14.58;43.98;101433.69;10375608;28;20053;-63
2024/01/29 15:32:48;;;;;;;12.35;11.15;;;;;;;13.89;45.43;101436.34;10382778;28;20088;-63
2024/01/29 15:37:50;;;;;;;12.88;11.55;;;;;;;13.40;46.58;101420.31;10393497;28;20048;-62
2024/01/29 15:42:53;;;;;;;11.25;10.07;;;;;;;13.35;47.37;101443.03;10401728;28;20068;-62
2024/01/29 15:47:55;;;;;;;12.93;11.02;;;;;;;13.19;48.05;101437.91;10398503;28;20076;-65
2024/01/29 15:52:57;;;;;;;15.70;13.00;;;;;;;13.19;48.48;101440.56;10383896;28;20052;-63
2024/01/29 15:57:58;;;;;;;14.23;12.43;;;;;;;12.97;48.91;101417.22;10368201;28;20054;-63
2024/01/29 16:03:01;;;;;;;14.43;11.95;;;;;;;12.97;48.94;101438.59;10381357;28;20053;-64
2024/01/29 16:08:09;;;;;;;16.02;13.70;;;;;;;12.73;49.56;101432.22;10386430;28;20111;-63
2024/01/29 16:13:11;;;;;;;16.50;13.30;;;;;;;12.69;50.14;101441.41;10379066;28;20142;-64
2024/01/29 16:18:13;;;;;;;15.75;14.07;;;;;;;12.57;50.69;101442.28;10384513;28;20127;-63
2024/01/29 16:23:16;;;;;;;18.92;16.25;;;;;;;12.47;51.26;101446.56;10373336;28;20045;-62
2024/01/29 16:28:17;;;;;;;17.85;16.05;;;;;;;12.34;51.57;101455.41;10389804;28;20056;-63
2024/01/29 16:33:19;;;;;;;20.42;18.45;;;;;;;12.16;52.02;101462.00;10380996;28;20060;-64
2024/01/29 16:38:21;;;;;;;18.63;16.70;;;;;;;12.03;52.47;101459.31;10394708;28;20088;-64
2024/01/29 16:43:23;;;;;;;16.30;14.60;;;;;;;11.94;53.02;101468.78;10379838;28;20112;-65
2024/01/29 16:48:24;;;;;;;16.38;14.43;;;;;;;11.91;53.37;101468.97;10388244;28;21068;-65
2024/01/29 16:53:25;;;;;;;18.25;14.02;;;;;;;11.86;53.37;101468.44;10401647;28;20041;-63
2024/01/29 16:58:27;;;;;;;15.40;13.93;;;;;;;11.63;53.69;101446.81;10355795;28;20127;-64
2024/01/29 17:03:30;;;;;;;16.05;14.20;;;;;;;11.54;54.43;101462.53;10373777;28;20055;-62
2024/01/29 17:08:31;;;;;;;17.98;15.20;;;;;;;11.55;54.74;101461.59;10387747;28;20041;-63
2024/01/29 17:13:33;;;;;;;18.55;15.93;;;;;;;11.48;54.84;101455.78;10392405;28;20117;-63
2024/01/29 17:18:34;;;;;;;16.85;14.20;;;;;;;11.37;55.17;101448.50;10391140;28;20144;-63
2024/01/29 17:23:36;;;;;;;16.20;14.60;;;;;;;11.39;55.38;101459.06;10394517;28;20735;-64
2024/01/29 17:28:38;;;;;;;15.85;13.48;;;;;;;11.31;55.83;101465.75;10390072;28;20115;-63
2024/01/29 17:33:39;;;;;;;16.30;14.68;;;;;;;11.22;55.98;101469.00;10375023;28;20171;-60
2024/01/29 17:38:41;;;;;;;14.38;12.77;;;;;;;11.06;56.41;101478.91;10384726;28;20063;-64
2024/01/29 17:43:46;;;;;;;15.45;12.98;;;;;;;10.96;56.70;101476.00;10391086;28;20138;-63
2024/01/29 17:48:49;;;;;;;13.15;11.45;;;;;;;10.95;59.90;101483.09;10389949;28;20533;-60
2024/01/29 17:53:51;;;;;;;14.40;12.98;;;;;;;10.91;57.21;101476.28;10372859;28;20073;-64
2024/01/29 17:58:52;;;;;;;14.52;13.05;;;;;;;10.89;57.67;101483.50;10378549;28;20111;-63
2024/01/29 18:03:54;;;;;;;14.40;12.95;;;;;;;10.90;57.88;101489.66;10393583;28;20065;-63
2024/01/29 18:08:58;;;;;;;15.77;13.82;;;;;;;10.83;57.53;101488.38;10358483;28;20723;-64
2024/01/29 18:14:00;;;;;;;17.55;15.93;;;;;;;10.76;57.71;101483.41;10378616;28;20515;-63
2024/01/29 18:19:05;;;;;;;18.80;17.00;;;;;;;10.66;58.03;101486.72;10366888;28;20163;-63
2024/01/29 18:24:07;;;;;;;19.27;17.17;;;;;;;10.53;58.33;101486.63;10391906;28;20160;-64
2024/01/29 18:29:08;;;;;;;16.75;15.15;;;;;;;10.52;58.78;101491.06;10371508;28;20803;-62
2024/01/29 18:34:10;;;;;;;17.85;15.77;;;;;;;10.46;58.86;101494.09;10395035;28;20115;-62
2024/01/29 18:39:13;;;;;;;17.33;15.67;;;;;;;10.48;59.31;101500.22;10370502;28;20062;-62
2024/01/29 18:44:15;;;;;;;17.38;15.23;;;;;;;10.41;59.38;101498.88;10394006;28;20849;-63
2024/01/29 18:49:17;;;;;;;15.90;14.32;;;;;;;10.26;59.47;101485.47;10381955;28;20071;-64
2024/01/29 18:54:20;;;;;;;16.63;14.88;;;;;;;10.17;59.99;101502.00;10379542;28;20057;-65
2024/01/29 18:59:22;;;;;;;16.35;14.73;;;;;;;10.19;59.95;101505.44;10382980;28;20060;-62
2024/01/29 19:04:24;;;;;;;18.50;16.27;;;;;;;10.14;60.13;101501.34;10383605;28;20620;-63
2024/01/29 19:09:26;;;;;;;18.33;15.50;;;;;;;10.07;60.76;101512.34;10385868;28;20054;-63
2024/01/29 19:14:28;;;;;;;20.52;16.77;;;;;;;10.05;61.70;101513.38;10385685;28;20175;-63
2024/01/29 19:19:29;;;;;;;17.63;15.05;;;;;;;10.08;61.42;101518.50;10384345;28;20693;-62
2024/01/29 19:24:31;;;;;;;25.85;20.50;;;;;;;9.98;61.30;101512.84;10389612;28;20077;-64
2024/01/29 19:29:33;;;;;;;22.58;20.20;;;;;;;9.83;61.53;101503.97;10361682;28;20148;-63
2024/01/29 19:34:36;;;;;;;20.85;18.33;;;;;;;9.86;61.69;101508.25;10390368;28;20072;-64
2024/01/29 19:39:38;;;;;;;24.67;21.33;;;;;;;9.82;61.78;101507.56;10368571;28;20056;-64
2024/01/29 19:44:40;;;;;;;24.50;18.63;;;;;;;9.82;62.00;101512.91;10374571;28;20048;-64
2024/01/29 19:49:46;;;;;;;22.13;17.58;;;;;;;9.69;61.77;101504.75;10368502;28;20140;-65
2024/01/29 19:54:48;;;;;;;22.63;17.48;;;;;;;9.67;62.16;101509.31;10394270;28;20115;-63
2024/01/29 19:59:49;;;;;;;21.08;18.52;;;;;;;9.57;62.73;101515.22;10373090;28;20590;-62
2024/01/29 20:04:54;;;;;;;21.50;17.75;;;;;;;9.49;62.35;101510.34;10391135;28;20484;-63
2024/01/29 20:09:57;;;;;;;21.38;18.95;;;;;;;9.44;62.71;101507.06;10375717;28;20041;-64
2024/01/29 20:14:59;;;;;;;20.80;18.23;;;;;;;9.40;62.72;101511.72;10378786;28;20053;-65
2024/01/29 20:20:00;;;;;;;24.75;18.20;;;;;;;9.32;63.41;101513.91;10366255;28;20052;-62
2024/01/29 20:25:03;;;;;;;21.17;19.02;;;;;;;9.25;63.04;101510.75;10389567;28;20053;-65
2024/01/29 20:30:07;;;;;;;21.55;19.13;;;;;;;9.26;63.39;101514.25;10386272;28;20101;-64
2024/01/29 20:35:10;;;;;;;19.15;17.25;;;;;;;9.19;63.29;101516.41;10393928;28;20087;-64
2024/01/29 20:40:14;;;;;;;20.87;18.23;;;;;;;9.24;63.29;101514.34;10394029;28;20086;-64
2024/01/29 20:45:15;;;;;;;20.73;18.65;;;;;;;9.15;63.12;101512.19;10376047;28;20057;-63
2024/01/29 20:50:17;;;;;;;20.63;18.23;;;;;;;9.02;63.61;101496.06;10395058;28;20143;-64
2024/01/29 20:55:18;;;;;;;20.65;18.45;;;;;;;8.94;63.75;101488.50;10386714;28;20059;-63
2024/01/29 21:00:21;;;;;;;21.92;18.77;;;;;;;8.97;64.20;101503.44;10361167;28;20616;-64
2024/01/29 21:05:22;;;;;;;20.60;18.50;;;;;;;8.92;63.94;101503.69;10393588;28;20194;-64
2024/01/29 21:10:28;;;;;;;21.65;19.42;;;;;;;8.93;64.21;101502.75;10392399;28;20061;-63
2024/01/29 21:15:30;;;;;;;22.25;19.67;;;;;;;8.91;64.02;101498.44;10390863;28;20041;-63
2024/01/29 21:20:32;;;;;;;20.92;18.73;;;;;;;8.84;64.04;101493.47;10392238;28;20711;-62
2024/01/29 21:25:33;;;;;;;21.30;19.15;;;;;;;8.79;64.64;101490.19;10387266;28;23508;-64
2024/01/29 21:30:34;;;;;;;20.20;17.80;;;;;;;8.77;64.52;101500.03;10364242;28;20361;-64
2024/01/29 21:35:36;;;;;;;21.02;18.67;;;;;;;8.73;64.72;101501.13;10375083;28;20053;-64
2024/01/29 21:40:38;;;;;;;20.52;17.63;;;;;;;8.68;64.74;101503.19;10381992;28;20048;-63
2024/01/29 21:45:39;;;;;;;18.52;16.55;;;;;;;8.65;64.50;101508.66;10384528;28;20044;-63
2024/01/29 21:50:43;;;;;;;18.53;15.73;;;;;;;8.61;64.97;101501.78;10392053;28;20053;-64
2024/01/29 21:55:46;;;;;;;16.60;14.95;;;;;;;8.64;64.87;101513.09;10388813;28;20716;-63
2024/01/29 22:00:48;;;;;;;19.10;15.63;;;;;;;8.53;64.83;101501.31;10382117;28;20071;-64
2024/01/29 22:05:49;;;;;;;16.42;14.13;;;;;;;8.45;65.16;101489.31;10374268;28;20068;-64
2024/01/29 22:10:51;;;;;;;16.08;14.45;;;;;;;8.39;65.17;101484.31;10387985;28;20060;-64
2024/01/29 22:15:53;;;;;;;15.93;14.30;;;;;;;8.39;64.79;101491.38;10369166;28;20088;-63
2024/01/29 22:20:55;;;;;;;15.55;13.88;;;;;;;8.41;64.89;101501.00;10382514;28;20057;-64
2024/01/29 22:25:58;;;;;;;15.55;13.38;;;;;;;8.32;65.06;101504.97;10378235;28;20128;-64
2024/01/29 22:30:59;;;;;;;16.48;13.93;;;;;;;8.32;65.29;101501.47;10354456;28;20716;-63
2024/01/29 22:36:06;;;;;;;16.08;13.90;;;;;;;8.28;65.01;101503.41;10383989;28;20060;-62
2024/01/29 22:41:08;;;;;;;14.77;13.15;;;;;;;8.26;65.27;101501.78;10385814;28;20620;-65
2024/01/29 22:46:09;;;;;;;15.10;13.45;;;;;;;8.14;65.33;101488.19;10392554;28;20159;-63
2024/01/29 22:51:13;;;;;;;13.53;11.47;;;;;;;8.13;65.21;101505.03;10386822;28;20187;-63
2024/01/29 22:56:15;;;;;;;15.75;11.50;;;;;;;8.14;64.95;101508.56;10369816;28;20053;-65
2024/01/29 23:01:19;;;;;;;14.32;11.75;;;;;;;8.01;65.35;101505.66;10380288;28;20509;-63